Meteo Giornale » Osservazioni meteo Italia » Pisa-S Giusto

ore: 03:45 - Osservazioni Meteo Pisa-S Giusto
Lat. 43° 41' N Lon. 10° 23' E Alt. 2 metri s.l.m.

sereno Europe/Rome

18 °C

Sereno

Temp. 24 Ore

16 °C

30 °C

Nord

5.5 Km/h

Dew point 16 °C

Umidità 88 %

Visibilità  10 Km

Il sole sorge alle ore 07:01

Il sole tramonta alle ore 19:22

Data e Ora Cielo e Fenomeni T °C DP °C Um. % Pres. hPa Vis. km Vento km/h
Oggi h: 03:45 sereno Sereno 18 16 88 1017 10 N 5.5
Oggi h: 03:15 sereno Sereno 18 15 82 1017 10 N 5.5
Ieri h: 23:45 sereno Sereno 19 18 93 1017 10 N 5.5
Ieri h: 23:15 sereno Sereno 19 18 93 1017 10 S 7.4
Ieri h: 22:45 sereno Sereno 20 19 93 1017 10 N 1.8
Ieri h: 22:15 sereno Sereno 20 19 93 1017 10 N 1.8
Ieri h: 21:45 sereno Sereno 21 19 88 1017 10 N 5.5
Ieri h: 21:15 sereno Sereno 21 20 94 1017 10 O 7.4
Ieri h: 20:45 sereno Sereno 23 20 83 1017 10 N 3.7
Ieri h: 20:15 sereno Sereno 23 19 78 1016 10 N 3.7
Ieri h: 19:45 sereno Sereno 24 19 73 1016 10 O/NO 7.4
Ieri h: 19:15 sereno Sereno 25 20 73 1016 10 NO 7.4
Ieri h: 18:45 sereno Sereno 25 20 73 1016 10 NO 9.3
Ieri h: 17:45 sereno Sereno 27 18 57 1016 10 O/NO 14.8
Ieri h: 17:15 poco_nuvoloso Poco Nuvoloso 28 17 51 1016 10 NO 20.3
Ieri h: 16:45 poco_nuvoloso Poco Nuvoloso 28 17 51 1016 10 NO 16.7
Ieri h: 16:15 poco_nuvoloso Poco Nuvoloso 28 15 45 1017 10 N/NO 20.3
Ieri h: 15:45 poco_nuvoloso Poco Nuvoloso 29 15 42 1017 10 NO 20.3
Ieri h: 15:15 poco_nuvoloso Poco Nuvoloso 30 16 42 1017 10 O/NO 22.2
Ieri h: 13:45 sereno Sereno 30 15 40 1017 10 NO 11.1
Ieri h: 13:15 sereno Sereno 30 15 40 1017 10 E 7.4
Ieri h: 12:45 sereno Sereno 29 14 39 1018 10 N 5.5
Ieri h: 12:15 sereno Sereno 29 15 42 1018 10 E 9.3
Ieri h: 11:45 sereno Sereno 29 15 42 1018 10 E 11.1
Ieri h: 11:15 sereno Sereno 28 16 48 1018 10 E/SE 16.7
Ieri h: 10:45 sereno Sereno 27 16 50 1017 10 E/SE 18.5
Ieri h: 10:15 sereno Sereno 25 17 61 1017 10 N 5.5
Ieri h: 09:45 sereno Sereno 24 17 64 1017 10 N 5.5
Ieri h: 09:15 sereno Sereno 21 17 77 1017 10 N 5.5
Ieri h: 08:45 sereno Sereno 19 17 88 1017 10 N 3.7
Ieri h: 08:15 sereno Sereno 18 16 88 1017 10 N 3.7
Ieri h: 07:45 sereno Sereno 16 15 93 1016 10 N 3.7
Ieri h: 06:45 sereno Sereno 17 16 93 1016 10 N 3.7
Ieri h: 06:15 sereno Sereno 17 16 93 1016 10 N 3.7
Ieri h: 05:45 sereno Sereno 17 16 93 1016 10 N 1.8
Ieri h: 05:15 sereno Sereno 17 16 93 1016 10 N 3.7
Ieri h: 04:45 sereno Sereno 17 16 93 1016 10 N 3.7